ADDS METAR Data

Data at: 0530 UTC 19 Jan 2018

METAR for:CYSJ (Saint John Arpt, NB, CN)
Text:CYSJ 190500Z 03004KT 15SM SKC M10/M12 A2978 RMK SLP094
Temperature:-10.0°C ( 14°F)
Dewpoint:-12.0°C ( 10°F) [RH = 85%]
Pressure (altimeter):29.78 inches Hg (1008.5 mb) [Sea level pressure: 1009.4 mb]
Winds:from the NNE (30 degrees) at 5 MPH (4 knots; 2.1 m/s)
Visibility: 15 sm ( 24 km)
Ceiling:at least 12,000 feet AGL
Clouds:clear skies